sensor_id;sensor_type;location;lat;lon;timestamp;P1;durP1;ratioP1;P2;durP2;ratioP2
18046;SDS011;9148;51.454;13.862;2024-01-30T00:01:14;7.00;;;5.90;;
18046;SDS011;9148;51.454;13.862;2024-01-30T00:03:40;14.07;;;5.57;;
18046;SDS011;9148;51.454;13.862;2024-01-30T00:06:07;10.03;;;6.13;;
18046;SDS011;9148;51.454;13.862;2024-01-30T00:08:33;7.83;;;6.10;;
18046;SDS011;9148;51.454;13.862;2024-01-30T00:10:59;8.97;;;5.80;;
18046;SDS011;9148;51.454;13.862;2024-01-30T00:13:25;8.47;;;6.33;;
18046;SDS011;9148;51.454;13.862;2024-01-30T00:15:51;14.47;;;5.87;;
18046;SDS011;9148;51.454;13.862;2024-01-30T00:18:17;11.83;;;6.87;;
18046;SDS011;9148;51.454;13.862;2024-01-30T00:20:43;12.53;;;5.70;;
18046;SDS011;9148;51.454;13.862;2024-01-30T00:23:09;9.63;;;6.00;;
18046;SDS011;9148;51.454;13.862;2024-01-30T00:25:35;10.33;;;5.97;;
18046;SDS011;9148;51.454;13.862;2024-01-30T00:28:00;9.83;;;6.33;;
18046;SDS011;9148;51.454;13.862;2024-01-30T00:30:26;5.97;;;4.60;;
18046;SDS011;9148;51.454;13.862;2024-01-30T00:32:52;20.73;;;6.77;;
18046;SDS011;9148;51.454;13.862;2024-01-30T00:35:18;10.97;;;6.37;;
18046;SDS011;9148;51.454;13.862;2024-01-30T00:37:44;8.93;;;6.30;;
18046;SDS011;9148;51.454;13.862;2024-01-30T00:40:09;8.93;;;6.33;;
18046;SDS011;9148;51.454;13.862;2024-01-30T00:42:40;13.97;;;7.47;;
18046;SDS011;9148;51.454;13.862;2024-01-30T00:45:15;10.77;;;6.10;;
18046;SDS011;9148;51.454;13.862;2024-01-30T00:47:41;7.03;;;5.20;;
18046;SDS011;9148;51.454;13.862;2024-01-30T00:50:08;8.53;;;5.60;;
18046;SDS011;9148;51.454;13.862;2024-01-30T00:52:34;8.43;;;5.93;;
18046;SDS011;9148;51.454;13.862;2024-01-30T00:55:00;13.93;;;7.77;;
18046;SDS011;9148;51.454;13.862;2024-01-30T00:57:26;10.70;;;6.03;;
18046;SDS011;9148;51.454;13.862;2024-01-30T00:59:52;6.87;;;5.23;;
18046;SDS011;9148;51.454;13.862;2024-01-30T01:02:17;8.20;;;6.07;;
18046;SDS011;9148;51.454;13.862;2024-01-30T01:04:43;10.97;;;7.33;;
18046;SDS011;9148;51.454;13.862;2024-01-30T01:07:09;11.47;;;6.30;;
18046;SDS011;9148;51.454;13.862;2024-01-30T01:09:36;6.60;;;5.40;;
18046;SDS011;9148;51.454;13.862;2024-01-30T01:12:02;10.77;;;6.43;;
18046;SDS011;9148;51.454;13.862;2024-01-30T01:14:28;14.30;;;6.13;;
18046;SDS011;9148;51.454;13.862;2024-01-30T01:16:54;13.20;;;7.00;;
18046;SDS011;9148;51.454;13.862;2024-01-30T01:19:19;10.73;;;5.67;;
18046;SDS011;9148;51.454;13.862;2024-01-30T01:21:45;8.57;;;5.63;;
18046;SDS011;9148;51.454;13.862;2024-01-30T01:24:11;10.13;;;6.40;;
18046;SDS011;9148;51.454;13.862;2024-01-30T01:26:36;10.93;;;6.23;;
18046;SDS011;9148;51.454;13.862;2024-01-30T01:29:02;12.03;;;6.93;;
18046;SDS011;9148;51.454;13.862;2024-01-30T01:31:34;7.83;;;5.23;;
18046;SDS011;9148;51.454;13.862;2024-01-30T01:34:11;10.67;;;6.53;;
18046;SDS011;9148;51.454;13.862;2024-01-30T01:36:37;11.57;;;6.63;;
18046;SDS011;9148;51.454;13.862;2024-01-30T01:39:04;9.03;;;6.77;;
18046;SDS011;9148;51.454;13.862;2024-01-30T01:41:32;11.17;;;6.87;;
18046;SDS011;9148;51.454;13.862;2024-01-30T01:43:59;10.33;;;5.87;;
18046;SDS011;9148;51.454;13.862;2024-01-30T01:46:28;13.93;;;8.00;;
18046;SDS011;9148;51.454;13.862;2024-01-30T01:48:57;10.50;;;6.77;;
18046;SDS011;9148;51.454;13.862;2024-01-30T01:51:26;13.27;;;7.67;;
18046;SDS011;9148;51.454;13.862;2024-01-30T01:53:53;16.40;;;6.50;;
18046;SDS011;9148;51.454;13.862;2024-01-30T01:56:21;8.60;;;6.80;;
18046;SDS011;9148;51.454;13.862;2024-01-30T01:58:48;10.40;;;6.20;;
18046;SDS011;9148;51.454;13.862;2024-01-30T02:01:16;9.90;;;6.23;;
18046;SDS011;9148;51.454;13.862;2024-01-30T02:03:45;8.17;;;6.00;;
18046;SDS011;9148;51.454;13.862;2024-01-30T02:06:12;7.77;;;5.97;;
18046;SDS011;9148;51.454;13.862;2024-01-30T02:08:39;10.03;;;6.47;;
18046;SDS011;9148;51.454;13.862;2024-01-30T02:11:05;8.00;;;6.13;;
18046;SDS011;9148;51.454;13.862;2024-01-30T02:13:31;10.07;;;6.60;;
18046;SDS011;9148;51.454;13.862;2024-01-30T02:15:57;8.27;;;6.13;;
18046;SDS011;9148;51.454;13.862;2024-01-30T02:18:22;11.13;;;6.30;;
18046;SDS011;9148;51.454;13.862;2024-01-30T02:20:48;8.00;;;6.00;;
18046;SDS011;9148;51.454;13.862;2024-01-30T02:23:15;9.67;;;6.40;;
18046;SDS011;9148;51.454;13.862;2024-01-30T02:25:42;12.53;;;7.07;;
18046;SDS011;9148;51.454;13.862;2024-01-30T02:28:11;7.67;;;5.93;;
18046;SDS011;9148;51.454;13.862;2024-01-30T02:30:39;9.43;;;6.43;;
18046;SDS011;9148;51.454;13.862;2024-01-30T02:33:05;11.80;;;6.63;;
18046;SDS011;9148;51.454;13.862;2024-01-30T02:35:31;11.47;;;5.90;;
18046;SDS011;9148;51.454;13.862;2024-01-30T02:37:57;8.10;;;5.37;;
18046;SDS011;9148;51.454;13.862;2024-01-30T02:40:22;9.10;;;5.50;;
18046;SDS011;9148;51.454;13.862;2024-01-30T02:42:48;12.40;;;6.57;;
18046;SDS011;9148;51.454;13.862;2024-01-30T02:45:14;8.87;;;5.93;;
18046;SDS011;9148;51.454;13.862;2024-01-30T02:47:40;10.67;;;5.83;;
18046;SDS011;9148;51.454;13.862;2024-01-30T02:50:06;9.70;;;6.53;;
18046;SDS011;9148;51.454;13.862;2024-01-30T02:52:32;11.93;;;6.87;;
18046;SDS011;9148;51.454;13.862;2024-01-30T02:54:57;12.73;;;5.93;;
18046;SDS011;9148;51.454;13.862;2024-01-30T02:57:23;10.60;;;6.77;;
18046;SDS011;9148;51.454;13.862;2024-01-30T02:59:49;12.03;;;5.83;;
18046;SDS011;9148;51.454;13.862;2024-01-30T03:02:14;9.27;;;6.27;;
18046;SDS011;9148;51.454;13.862;2024-01-30T03:04:40;8.07;;;6.20;;
18046;SDS011;9148;51.454;13.862;2024-01-30T03:07:07;8.00;;;6.50;;
18046;SDS011;9148;51.454;13.862;2024-01-30T03:09:33;5.97;;;5.23;;
18046;SDS011;9148;51.454;13.862;2024-01-30T03:11:59;5.57;;;4.73;;
18046;SDS011;9148;51.454;13.862;2024-01-30T03:14:24;8.93;;;6.93;;
18046;SDS011;9148;51.454;13.862;2024-01-30T03:16:50;12.57;;;5.93;;
18046;SDS011;9148;51.454;13.862;2024-01-30T03:19:15;6.97;;;6.23;;
18046;SDS011;9148;51.454;13.862;2024-01-30T03:21:41;16.80;;;6.33;;
18046;SDS011;9148;51.454;13.862;2024-01-30T03:24:07;10.53;;;5.90;;
18046;SDS011;9148;51.454;13.862;2024-01-30T03:26:34;9.70;;;6.73;;
18046;SDS011;9148;51.454;13.862;2024-01-30T03:28:59;11.07;;;5.87;;
18046;SDS011;9148;51.454;13.862;2024-01-30T03:31:25;10.87;;;6.63;;
18046;SDS011;9148;51.454;13.862;2024-01-30T03:33:51;12.03;;;6.43;;
18046;SDS011;9148;51.454;13.862;2024-01-30T03:36:16;16.70;;;7.43;;
18046;SDS011;9148;51.454;13.862;2024-01-30T03:38:42;10.97;;;6.43;;
18046;SDS011;9148;51.454;13.862;2024-01-30T03:41:08;8.13;;;5.67;;
18046;SDS011;9148;51.454;13.862;2024-01-30T03:43:34;12.50;;;7.40;;
18046;SDS011;9148;51.454;13.862;2024-01-30T03:46:01;9.97;;;6.40;;
18046;SDS011;9148;51.454;13.862;2024-01-30T03:48:28;10.93;;;6.43;;
18046;SDS011;9148;51.454;13.862;2024-01-30T03:50:54;13.77;;;5.67;;
18046;SDS011;9148;51.454;13.862;2024-01-30T03:53:20;11.03;;;6.83;;
18046;SDS011;9148;51.454;13.862;2024-01-30T03:55:46;9.23;;;6.13;;
18046;SDS011;9148;51.454;13.862;2024-01-30T03:58:12;12.67;;;6.27;;
18046;SDS011;9148;51.454;13.862;2024-01-30T04:00:38;9.17;;;6.43;;
18046;SDS011;9148;51.454;13.862;2024-01-30T04:03:03;9.03;;;5.47;;
18046;SDS011;9148;51.454;13.862;2024-01-30T04:05:30;12.10;;;6.20;;
18046;SDS011;9148;51.454;13.862;2024-01-30T04:07:55;9.70;;;5.37;;
18046;SDS011;9148;51.454;13.862;2024-01-30T04:10:21;8.33;;;5.73;;
18046;SDS011;9148;51.454;13.862;2024-01-30T04:12:47;9.77;;;6.77;;
18046;SDS011;9148;51.454;13.862;2024-01-30T04:15:12;9.20;;;6.40;;
18046;SDS011;9148;51.454;13.862;2024-01-30T04:17:39;8.63;;;6.23;;
18046;SDS011;9148;51.454;13.862;2024-01-30T04:20:05;6.57;;;5.60;;
18046;SDS011;9148;51.454;13.862;2024-01-30T04:22:31;9.90;;;6.27;;
18046;SDS011;9148;51.454;13.862;2024-01-30T04:24:57;11.00;;;6.13;;
18046;SDS011;9148;51.454;13.862;2024-01-30T04:27:23;8.17;;;5.93;;
18046;SDS011;9148;51.454;13.862;2024-01-30T04:29:48;9.07;;;6.17;;
18046;SDS011;9148;51.454;13.862;2024-01-30T04:32:14;7.60;;;5.97;;
18046;SDS011;9148;51.454;13.862;2024-01-30T04:34:40;8.53;;;6.13;;
18046;SDS011;9148;51.454;13.862;2024-01-30T04:37:05;9.33;;;6.37;;
18046;SDS011;9148;51.454;13.862;2024-01-30T04:39:32;13.47;;;6.50;;
18046;SDS011;9148;51.454;13.862;2024-01-30T04:41:58;11.57;;;7.07;;
18046;SDS011;9148;51.454;13.862;2024-01-30T04:44:24;8.50;;;6.67;;
18046;SDS011;9148;51.454;13.862;2024-01-30T04:46:50;9.53;;;6.60;;
18046;SDS011;9148;51.454;13.862;2024-01-30T04:49:15;8.47;;;5.47;;
18046;SDS011;9148;51.454;13.862;2024-01-30T04:51:41;6.97;;;5.33;;
18046;SDS011;9148;51.454;13.862;2024-01-30T04:54:07;6.97;;;5.53;;
18046;SDS011;9148;51.454;13.862;2024-01-30T04:56:32;11.00;;;6.70;;
18046;SDS011;9148;51.454;13.862;2024-01-30T04:58:59;6.80;;;5.93;;
18046;SDS011;9148;51.454;13.862;2024-01-30T05:01:25;6.33;;;4.60;;
18046;SDS011;9148;51.454;13.862;2024-01-30T05:03:51;8.20;;;6.03;;
18046;SDS011;9148;51.454;13.862;2024-01-30T05:06:26;7.50;;;5.97;;
18046;SDS011;9148;51.454;13.862;2024-01-30T05:08:52;10.43;;;6.87;;
18046;SDS011;9148;51.454;13.862;2024-01-30T05:11:18;9.83;;;5.70;;
18046;SDS011;9148;51.454;13.862;2024-01-30T05:13:44;10.03;;;5.70;;
18046;SDS011;9148;51.454;13.862;2024-01-30T05:16:09;7.63;;;5.63;;
18046;SDS011;9148;51.454;13.862;2024-01-30T05:18:35;6.83;;;6.10;;
18046;SDS011;9148;51.454;13.862;2024-01-30T05:21:01;12.73;;;6.40;;
18046;SDS011;9148;51.454;13.862;2024-01-30T05:23:28;8.13;;;5.53;;
18046;SDS011;9148;51.454;13.862;2024-01-30T05:25:54;12.83;;;6.23;;
18046;SDS011;9148;51.454;13.862;2024-01-30T05:28:19;13.63;;;7.03;;
18046;SDS011;9148;51.454;13.862;2024-01-30T05:30:45;13.93;;;5.97;;
18046;SDS011;9148;51.454;13.862;2024-01-30T05:33:11;6.53;;;5.73;;
18046;SDS011;9148;51.454;13.862;2024-01-30T05:35:37;10.77;;;6.40;;
18046;SDS011;9148;51.454;13.862;2024-01-30T05:38:03;9.33;;;5.53;;
18046;SDS011;9148;51.454;13.862;2024-01-30T05:40:29;15.93;;;6.27;;
18046;SDS011;9148;51.454;13.862;2024-01-30T05:42:56;9.30;;;6.00;;
18046;SDS011;9148;51.454;13.862;2024-01-30T05:45:26;13.43;;;5.67;;
18046;SDS011;9148;51.454;13.862;2024-01-30T05:47:52;10.00;;;6.87;;
18046;SDS011;9148;51.454;13.862;2024-01-30T05:50:18;6.43;;;5.60;;
18046;SDS011;9148;51.454;13.862;2024-01-30T05:52:45;7.93;;;5.80;;
18046;SDS011;9148;51.454;13.862;2024-01-30T05:55:11;12.27;;;6.07;;
18046;SDS011;9148;51.454;13.862;2024-01-30T05:57:37;9.33;;;6.00;;
18046;SDS011;9148;51.454;13.862;2024-01-30T06:00:04;14.37;;;7.10;;
18046;SDS011;9148;51.454;13.862;2024-01-30T06:02:32;10.73;;;6.67;;
18046;SDS011;9148;51.454;13.862;2024-01-30T06:04:58;12.37;;;6.60;;
18046;SDS011;9148;51.454;13.862;2024-01-30T06:07:23;9.77;;;5.53;;
18046;SDS011;9148;51.454;13.862;2024-01-30T06:09:49;14.43;;;7.10;;
18046;SDS011;9148;51.454;13.862;2024-01-30T06:12:15;13.93;;;7.40;;
18046;SDS011;9148;51.454;13.862;2024-01-30T06:14:40;10.87;;;6.37;;
18046;SDS011;9148;51.454;13.862;2024-01-30T06:17:07;10.00;;;7.17;;
18046;SDS011;9148;51.454;13.862;2024-01-30T06:19:33;12.13;;;7.37;;
18046;SDS011;9148;51.454;13.862;2024-01-30T06:21:59;14.50;;;7.80;;
18046;SDS011;9148;51.454;13.862;2024-01-30T06:24:25;24.37;;;8.30;;
18046;SDS011;9148;51.454;13.862;2024-01-30T06:26:51;12.57;;;8.93;;
18046;SDS011;9148;51.454;13.862;2024-01-30T06:29:16;14.80;;;8.13;;
18046;SDS011;9148;51.454;13.862;2024-01-30T06:31:42;12.30;;;9.23;;
18046;SDS011;9148;51.454;13.862;2024-01-30T06:34:08;17.47;;;10.83;;
18046;SDS011;9148;51.454;13.862;2024-01-30T06:36:35;11.00;;;7.27;;
18046;SDS011;9148;51.454;13.862;2024-01-30T06:39:01;14.27;;;9.50;;
18046;SDS011;9148;51.454;13.862;2024-01-30T06:41:27;15.97;;;10.33;;
18046;SDS011;9148;51.454;13.862;2024-01-30T06:43:53;27.20;;;15.90;;
18046;SDS011;9148;51.454;13.862;2024-01-30T06:46:19;28.10;;;16.57;;
18046;SDS011;9148;51.454;13.862;2024-01-30T06:48:45;23.37;;;11.70;;
18046;SDS011;9148;51.454;13.862;2024-01-30T06:51:11;17.13;;;9.83;;
18046;SDS011;9148;51.454;13.862;2024-01-30T06:53:37;18.10;;;9.47;;
18046;SDS011;9148;51.454;13.862;2024-01-30T06:56:03;28.13;;;16.43;;
18046;SDS011;9148;51.454;13.862;2024-01-30T06:58:29;33.70;;;15.57;;
18046;SDS011;9148;51.454;13.862;2024-01-30T07:00:55;22.93;;;12.97;;
18046;SDS011;9148;51.454;13.862;2024-01-30T07:03:21;19.67;;;11.17;;
18046;SDS011;9148;51.454;13.862;2024-01-30T07:05:47;16.90;;;9.07;;
18046;SDS011;9148;51.454;13.862;2024-01-30T07:08:13;20.10;;;10.40;;
18046;SDS011;9148;51.454;13.862;2024-01-30T07:10:42;10.60;;;7.07;;
18046;SDS011;9148;51.454;13.862;2024-01-30T07:13:11;11.13;;;7.27;;
18046;SDS011;9148;51.454;13.862;2024-01-30T07:15:37;8.17;;;6.37;;
18046;SDS011;9148;51.454;13.862;2024-01-30T07:18:03;13.63;;;7.10;;
18046;SDS011;9148;51.454;13.862;2024-01-30T07:20:29;8.83;;;5.57;;
18046;SDS011;9148;51.454;13.862;2024-01-30T07:22:57;8.97;;;6.23;;
18046;SDS011;9148;51.454;13.862;2024-01-30T07:25:23;9.50;;;6.17;;
18046;SDS011;9148;51.454;13.862;2024-01-30T07:27:55;8.17;;;6.23;;
18046;SDS011;9148;51.454;13.862;2024-01-30T07:30:21;9.73;;;5.30;;
18046;SDS011;9148;51.454;13.862;2024-01-30T07:32:48;9.40;;;5.73;;
18046;SDS011;9148;51.454;13.862;2024-01-30T07:35:14;16.77;;;6.03;;
18046;SDS011;9148;51.454;13.862;2024-01-30T07:37:40;5.47;;;4.60;;
18046;SDS011;9148;51.454;13.862;2024-01-30T07:40:06;9.17;;;5.43;;
18046;SDS011;9148;51.454;13.862;2024-01-30T07:42:32;7.80;;;5.03;;
18046;SDS011;9148;51.454;13.862;2024-01-30T07:44:58;10.73;;;5.70;;
18046;SDS011;9148;51.454;13.862;2024-01-30T07:47:25;8.63;;;5.90;;
18046;SDS011;9148;51.454;13.862;2024-01-30T07:49:51;8.83;;;5.23;;
18046;SDS011;9148;51.454;13.862;2024-01-30T07:52:16;7.27;;;4.57;;
18046;SDS011;9148;51.454;13.862;2024-01-30T07:54:42;8.83;;;5.50;;
18046;SDS011;9148;51.454;13.862;2024-01-30T07:57:08;10.53;;;5.23;;
18046;SDS011;9148;51.454;13.862;2024-01-30T07:59:33;5.43;;;4.47;;
18046;SDS011;9148;51.454;13.862;2024-01-30T08:01:59;10.30;;;4.63;;
18046;SDS011;9148;51.454;13.862;2024-01-30T08:04:25;6.17;;;4.83;;
18046;SDS011;9148;51.454;13.862;2024-01-30T08:06:50;7.87;;;4.17;;
18046;SDS011;9148;51.454;13.862;2024-01-30T08:09:16;6.83;;;5.30;;
18046;SDS011;9148;51.454;13.862;2024-01-30T08:11:42;9.73;;;5.73;;
18046;SDS011;9148;51.454;13.862;2024-01-30T08:14:07;16.43;;;5.23;;
18046;SDS011;9148;51.454;13.862;2024-01-30T08:16:33;7.13;;;4.97;;
18046;SDS011;9148;51.454;13.862;2024-01-30T08:18:59;8.73;;;4.30;;
18046;SDS011;9148;51.454;13.862;2024-01-30T08:21:25;7.13;;;4.67;;
18046;SDS011;9148;51.454;13.862;2024-01-30T08:23:51;7.70;;;5.30;;
18046;SDS011;9148;51.454;13.862;2024-01-30T08:26:17;6.37;;;4.50;;
18046;SDS011;9148;51.454;13.862;2024-01-30T08:28:43;5.30;;;4.33;;
18046;SDS011;9148;51.454;13.862;2024-01-30T08:31:10;11.73;;;5.10;;
18046;SDS011;9148;51.454;13.862;2024-01-30T08:33:37;10.73;;;5.40;;
18046;SDS011;9148;51.454;13.862;2024-01-30T08:36:02;8.40;;;4.90;;
18046;SDS011;9148;51.454;13.862;2024-01-30T08:38:28;8.53;;;4.97;;
18046;SDS011;9148;51.454;13.862;2024-01-30T08:40:54;13.57;;;6.17;;
18046;SDS011;9148;51.454;13.862;2024-01-30T08:43:20;7.17;;;5.23;;
18046;SDS011;9148;51.454;13.862;2024-01-30T08:45:46;11.60;;;5.77;;
18046;SDS011;9148;51.454;13.862;2024-01-30T08:48:12;8.40;;;5.63;;
18046;SDS011;9148;51.454;13.862;2024-01-30T08:50:37;10.73;;;5.07;;
18046;SDS011;9148;51.454;13.862;2024-01-30T08:53:03;6.60;;;4.30;;
18046;SDS011;9148;51.454;13.862;2024-01-30T08:55:29;10.63;;;4.90;;
18046;SDS011;9148;51.454;13.862;2024-01-30T08:57:55;7.37;;;4.33;;
18046;SDS011;9148;51.454;13.862;2024-01-30T09:00:21;10.70;;;6.07;;
18046;SDS011;9148;51.454;13.862;2024-01-30T09:02:47;7.73;;;4.80;;
18046;SDS011;9148;51.454;13.862;2024-01-30T09:05:12;7.03;;;5.70;;
18046;SDS011;9148;51.454;13.862;2024-01-30T09:07:38;10.50;;;5.43;;
18046;SDS011;9148;51.454;13.862;2024-01-30T09:10:04;7.73;;;4.47;;
18046;SDS011;9148;51.454;13.862;2024-01-30T09:12:30;8.80;;;5.57;;
18046;SDS011;9148;51.454;13.862;2024-01-30T09:14:56;11.80;;;5.60;;
18046;SDS011;9148;51.454;13.862;2024-01-30T09:17:22;12.90;;;5.40;;
18046;SDS011;9148;51.454;13.862;2024-01-30T09:19:47;5.47;;;4.93;;
18046;SDS011;9148;51.454;13.862;2024-01-30T09:22:13;8.00;;;5.23;;
18046;SDS011;9148;51.454;13.862;2024-01-30T09:24:39;6.87;;;4.87;;
18046;SDS011;9148;51.454;13.862;2024-01-30T09:27:05;9.20;;;5.07;;
18046;SDS011;9148;51.454;13.862;2024-01-30T09:29:31;7.47;;;4.57;;
18046;SDS011;9148;51.454;13.862;2024-01-30T09:31:59;10.53;;;6.03;;
18046;SDS011;9148;51.454;13.862;2024-01-30T09:34:25;13.13;;;5.47;;
18046;SDS011;9148;51.454;13.862;2024-01-30T09:36:50;7.17;;;5.30;;
18046;SDS011;9148;51.454;13.862;2024-01-30T09:39:16;7.13;;;4.67;;
18046;SDS011;9148;51.454;13.862;2024-01-30T09:41:48;8.57;;;5.17;;
18046;SDS011;9148;51.454;13.862;2024-01-30T09:44:17;14.23;;;5.30;;
18046;SDS011;9148;51.454;13.862;2024-01-30T09:46:46;12.27;;;4.80;;
18046;SDS011;9148;51.454;13.862;2024-01-30T09:49:15;6.43;;;4.80;;
18046;SDS011;9148;51.454;13.862;2024-01-30T09:51:43;8.10;;;5.47;;
18046;SDS011;9148;51.454;13.862;2024-01-30T09:54:10;8.33;;;5.03;;
18046;SDS011;9148;51.454;13.862;2024-01-30T09:56:38;7.73;;;5.13;;
18046;SDS011;9148;51.454;13.862;2024-01-30T09:59:04;7.37;;;5.37;;
18046;SDS011;9148;51.454;13.862;2024-01-30T10:01:30;10.70;;;5.10;;
18046;SDS011;9148;51.454;13.862;2024-01-30T10:03:56;11.80;;;5.50;;
18046;SDS011;9148;51.454;13.862;2024-01-30T10:06:22;6.97;;;4.73;;
18046;SDS011;9148;51.454;13.862;2024-01-30T10:08:50;9.17;;;5.67;;
18046;SDS011;9148;51.454;13.862;2024-01-30T10:11:15;7.97;;;4.37;;
18046;SDS011;9148;51.454;13.862;2024-01-30T10:13:41;5.23;;;4.73;;
18046;SDS011;9148;51.454;13.862;2024-01-30T10:16:07;7.60;;;5.60;;
18046;SDS011;9148;51.454;13.862;2024-01-30T10:18:32;9.60;;;5.03;;
18046;SDS011;9148;51.454;13.862;2024-01-30T10:20:58;7.20;;;5.97;;
18046;SDS011;9148;51.454;13.862;2024-01-30T10:23:24;9.10;;;5.23;;
18046;SDS011;9148;51.454;13.862;2024-01-30T10:25:53;9.50;;;6.10;;
18046;SDS011;9148;51.454;13.862;2024-01-30T10:28:19;11.27;;;5.93;;
18046;SDS011;9148;51.454;13.862;2024-01-30T10:30:46;8.13;;;5.47;;
18046;SDS011;9148;51.454;13.862;2024-01-30T10:33:12;11.87;;;4.90;;
18046;SDS011;9148;51.454;13.862;2024-01-30T10:35:38;5.73;;;5.17;;
18046;SDS011;9148;51.454;13.862;2024-01-30T10:38:03;11.13;;;5.77;;
18046;SDS011;9148;51.454;13.862;2024-01-30T10:40:32;7.87;;;5.57;;
18046;SDS011;9148;51.454;13.862;2024-01-30T10:43:00;9.83;;;5.13;;
18046;SDS011;9148;51.454;13.862;2024-01-30T10:45:27;7.60;;;4.73;;
18046;SDS011;9148;51.454;13.862;2024-01-30T10:47:54;12.33;;;4.50;;
18046;SDS011;9148;51.454;13.862;2024-01-30T10:50:24;6.83;;;4.70;;
18046;SDS011;9148;51.454;13.862;2024-01-30T10:52:50;8.47;;;4.53;;
18046;SDS011;9148;51.454;13.862;2024-01-30T10:55:17;7.33;;;4.67;;
18046;SDS011;9148;51.454;13.862;2024-01-30T10:57:44;6.37;;;5.33;;
18046;SDS011;9148;51.454;13.862;2024-01-30T11:00:10;7.97;;;5.23;;
18046;SDS011;9148;51.454;13.862;2024-01-30T11:02:38;10.97;;;5.77;;
18046;SDS011;9148;51.454;13.862;2024-01-30T11:05:10;10.73;;;5.97;;
18046;SDS011;9148;51.454;13.862;2024-01-30T11:07:38;9.03;;;5.07;;
18046;SDS011;9148;51.454;13.862;2024-01-30T11:10:08;13.53;;;5.27;;
18046;SDS011;9148;51.454;13.862;2024-01-30T11:12:38;9.60;;;6.10;;
18046;SDS011;9148;51.454;13.862;2024-01-30T11:15:18;15.93;;;5.37;;
18046;SDS011;9148;51.454;13.862;2024-01-30T11:17:50;10.33;;;5.13;;
18046;SDS011;9148;51.454;13.862;2024-01-30T11:20:30;7.03;;;4.77;;
18046;SDS011;9148;51.454;13.862;2024-01-30T11:22:56;7.77;;;4.97;;
18046;SDS011;9148;51.454;13.862;2024-01-30T11:25:23;7.87;;;5.17;;
18046;SDS011;9148;51.454;13.862;2024-01-30T11:27:51;8.17;;;5.67;;
18046;SDS011;9148;51.454;13.862;2024-01-30T11:30:22;12.30;;;6.20;;
18046;SDS011;9148;51.454;13.862;2024-01-30T11:35:43;11.10;;;5.00;;
18046;SDS011;9148;51.454;13.862;2024-01-30T11:38:10;9.50;;;4.93;;
18046;SDS011;9148;51.454;13.862;2024-01-30T11:40:39;13.60;;;5.70;;
18046;SDS011;9148;51.454;13.862;2024-01-30T11:43:06;8.20;;;5.07;;
18046;SDS011;9148;51.454;13.862;2024-01-30T11:45:34;8.27;;;5.70;;
18046;SDS011;9148;51.454;13.862;2024-01-30T11:48:01;7.50;;;5.33;;
18046;SDS011;9148;51.454;13.862;2024-01-30T11:50:32;9.90;;;5.53;;
18046;SDS011;9148;51.454;13.862;2024-01-30T11:52:59;6.67;;;5.07;;
18046;SDS011;9148;51.454;13.862;2024-01-30T11:55:25;15.13;;;6.10;;
18046;SDS011;9148;51.454;13.862;2024-01-30T11:57:51;8.33;;;5.10;;
18046;SDS011;9148;51.454;13.862;2024-01-30T12:00:20;6.80;;;4.93;;
18046;SDS011;9148;51.454;13.862;2024-01-30T12:02:49;8.03;;;4.97;;
18046;SDS011;9148;51.454;13.862;2024-01-30T12:05:20;9.27;;;4.87;;
18046;SDS011;9148;51.454;13.862;2024-01-30T12:07:52;6.80;;;5.73;;
18046;SDS011;9148;51.454;13.862;2024-01-30T12:10:21;9.30;;;4.93;;
18046;SDS011;9148;51.454;13.862;2024-01-30T12:12:47;16.27;;;5.63;;
18046;SDS011;9148;51.454;13.862;2024-01-30T12:15:15;7.63;;;4.37;;
18046;SDS011;9148;51.454;13.862;2024-01-30T12:17:41;12.73;;;6.03;;
18046;SDS011;9148;51.454;13.862;2024-01-30T12:20:08;8.23;;;6.43;;
18046;SDS011;9148;51.454;13.862;2024-01-30T12:22:44;6.90;;;5.53;;
18046;SDS011;9148;51.454;13.862;2024-01-30T12:25:12;9.30;;;6.33;;
18046;SDS011;9148;51.454;13.862;2024-01-30T12:27:44;10.50;;;5.93;;
18046;SDS011;9148;51.454;13.862;2024-01-30T12:30:15;7.33;;;4.43;;
18046;SDS011;9148;51.454;13.862;2024-01-30T12:32:41;8.50;;;5.77;;
18046;SDS011;9148;51.454;13.862;2024-01-30T12:35:12;5.83;;;4.57;;
18046;SDS011;9148;51.454;13.862;2024-01-30T12:37:40;12.33;;;4.90;;
18046;SDS011;9148;51.454;13.862;2024-01-30T12:40:08;10.50;;;5.37;;
18046;SDS011;9148;51.454;13.862;2024-01-30T12:42:34;8.67;;;5.30;;
18046;SDS011;9148;51.454;13.862;2024-01-30T12:45:01;7.33;;;5.80;;
18046;SDS011;9148;51.454;13.862;2024-01-30T12:47:29;6.13;;;4.77;;
18046;SDS011;9148;51.454;13.862;2024-01-30T12:49:55;9.00;;;6.07;;
18046;SDS011;9148;51.454;13.862;2024-01-30T12:52:21;13.53;;;6.27;;
18046;SDS011;9148;51.454;13.862;2024-01-30T12:54:50;8.63;;;4.97;;
18046;SDS011;9148;51.454;13.862;2024-01-30T12:57:17;8.53;;;4.90;;
18046;SDS011;9148;51.454;13.862;2024-01-30T12:59:43;6.97;;;4.53;;
18046;SDS011;9148;51.454;13.862;2024-01-30T13:02:11;12.03;;;6.10;;
18046;SDS011;9148;51.454;13.862;2024-01-30T13:04:38;5.60;;;4.53;;
18046;SDS011;9148;51.454;13.862;2024-01-30T13:07:04;12.80;;;8.90;;
18046;SDS011;9148;51.454;13.862;2024-01-30T13:09:30;12.23;;;6.53;;
18046;SDS011;9148;51.454;13.862;2024-01-30T13:11:56;11.40;;;6.77;;
18046;SDS011;9148;51.454;13.862;2024-01-30T13:14:22;11.67;;;6.13;;
18046;SDS011;9148;51.454;13.862;2024-01-30T13:16:50;6.47;;;4.53;;
18046;SDS011;9148;51.454;13.862;2024-01-30T13:19:15;10.57;;;5.23;;
18046;SDS011;9148;51.454;13.862;2024-01-30T13:21:42;7.07;;;4.57;;
18046;SDS011;9148;51.454;13.862;2024-01-30T13:24:07;7.27;;;4.77;;
18046;SDS011;9148;51.454;13.862;2024-01-30T13:26:34;9.97;;;5.20;;
18046;SDS011;9148;51.454;13.862;2024-01-30T13:29:00;9.60;;;5.97;;
18046;SDS011;9148;51.454;13.862;2024-01-30T13:31:26;6.97;;;4.83;;
18046;SDS011;9148;51.454;13.862;2024-01-30T13:33:52;9.83;;;4.90;;
18046;SDS011;9148;51.454;13.862;2024-01-30T13:36:18;12.17;;;6.53;;
18046;SDS011;9148;51.454;13.862;2024-01-30T13:38:44;8.10;;;4.90;;
18046;SDS011;9148;51.454;13.862;2024-01-30T13:41:10;8.37;;;5.43;;
18046;SDS011;9148;51.454;13.862;2024-01-30T13:43:36;6.17;;;4.53;;
18046;SDS011;9148;51.454;13.862;2024-01-30T13:46:01;7.73;;;5.53;;
18046;SDS011;9148;51.454;13.862;2024-01-30T13:48:28;6.87;;;5.13;;
18046;SDS011;9148;51.454;13.862;2024-01-30T13:50:54;9.00;;;5.97;;
18046;SDS011;9148;51.454;13.862;2024-01-30T13:53:20;7.37;;;5.00;;
18046;SDS011;9148;51.454;13.862;2024-01-30T13:55:46;11.57;;;6.30;;
18046;SDS011;9148;51.454;13.862;2024-01-30T13:58:12;9.93;;;5.77;;
18046;SDS011;9148;51.454;13.862;2024-01-30T14:00:37;9.57;;;5.30;;
18046;SDS011;9148;51.454;13.862;2024-01-30T14:03:03;12.13;;;5.53;;
18046;SDS011;9148;51.454;13.862;2024-01-30T14:05:29;11.27;;;6.83;;
18046;SDS011;9148;51.454;13.862;2024-01-30T14:07:55;8.53;;;5.23;;
18046;SDS011;9148;51.454;13.862;2024-01-30T14:10:22;9.90;;;5.97;;
18046;SDS011;9148;51.454;13.862;2024-01-30T14:12:48;12.70;;;6.67;;
18046;SDS011;9148;51.454;13.862;2024-01-30T14:15:14;10.47;;;5.13;;
18046;SDS011;9148;51.454;13.862;2024-01-30T14:17:42;6.83;;;5.07;;
18046;SDS011;9148;51.454;13.862;2024-01-30T14:20:10;9.23;;;5.17;;
18046;SDS011;9148;51.454;13.862;2024-01-30T14:22:36;9.70;;;5.50;;
18046;SDS011;9148;51.454;13.862;2024-01-30T14:25:02;9.87;;;5.07;;
18046;SDS011;9148;51.454;13.862;2024-01-30T14:27:28;10.07;;;6.60;;
18046;SDS011;9148;51.454;13.862;2024-01-30T14:29:55;10.10;;;6.20;;
18046;SDS011;9148;51.454;13.862;2024-01-30T14:32:21;10.27;;;5.90;;
18046;SDS011;9148;51.454;13.862;2024-01-30T14:34:48;10.60;;;4.97;;
18046;SDS011;9148;51.454;13.862;2024-01-30T14:37:15;8.70;;;6.20;;
18046;SDS011;9148;51.454;13.862;2024-01-30T14:39:40;12.03;;;5.30;;